Time,TemperatureF,DewpointF,PressureIn,WindDirection,WindDirectionDegrees,WindSpeedMPH,WindSpeedGustMPH,Humidity,HourlyPrecipIn,Conditions,Clouds,dailyrainin,SoftwareType,DateUTC
2013-07-25 00:08:00,66.4,45.0,29.83,ENE,62,0.0,0.0,46,0.00,,,0.00,meteobridge,2013-07-25 07:08:00,
2013-07-25 00:24:00,65.7,45.5,29.83,ENE,62,0.0,0.0,48,0.00,,,0.00,meteobridge,2013-07-25 07:24:00,
2013-07-25 00:39:00,65.1,44.4,29.83,ENE,62,0.0,0.0,47,0.00,,,0.00,meteobridge,2013-07-25 07:39:00,
2013-07-25 00:54:00,63.9,43.7,29.83,ENE,62,0.0,0.0,48,0.00,,,0.00,meteobridge,2013-07-25 07:54:00,
2013-07-25 01:09:00,63.5,44.1,29.83,ENE,62,0.0,0.0,49,0.00,,,0.00,meteobridge,2013-07-25 08:09:00,
2013-07-25 01:24:00,63.7,43.7,29.84,ENE,62,0.0,0.0,48,0.00,,,0.00,meteobridge,2013-07-25 08:24:00,
2013-07-25 01:39:00,62.8,43.9,29.84,ENE,62,0.0,0.0,50,0.00,,,0.00,meteobridge,2013-07-25 08:39:00,
2013-07-25 01:54:00,62.4,44.1,29.84,ENE,62,0.0,0.0,51,0.00,,,0.00,meteobridge,2013-07-25 08:54:00,
2013-07-25 02:09:00,63.0,44.6,29.85,ENE,62,0.0,0.0,51,0.00,,,0.00,meteobridge,2013-07-25 09:09:00,
2013-07-25 02:25:00,62.2,43.3,29.85,ENE,62,0.0,0.0,50,0.00,,,0.00,meteobridge,2013-07-25 09:25:00,
2013-07-25 02:40:00,61.3,44.1,29.85,ENE,62,0.0,0.0,53,0.00,,,0.00,meteobridge,2013-07-25 09:40:00,
2013-07-25 02:55:00,61.0,44.8,29.85,ENE,62,0.0,0.0,55,0.00,,,0.00,meteobridge,2013-07-25 09:55:00,
2013-07-25 03:10:00,60.3,44.4,29.85,ENE,62,0.0,0.0,56,0.00,,,0.00,meteobridge,2013-07-25 10:10:00,
2013-07-25 03:25:00,59.2,43.9,29.86,ENE,62,0.0,0.0,57,0.00,,,0.00,meteobridge,2013-07-25 10:25:00,
2013-07-25 03:40:00,58.1,43.9,29.86,ENE,62,0.0,0.0,59,0.00,,,0.00,meteobridge,2013-07-25 10:40:00,
2013-07-25 03:56:00,58.1,44.2,29.86,ENE,63,0.0,0.0,60,0.00,,,0.00,meteobridge,2013-07-25 10:56:00,
2013-07-25 04:11:00,57.4,43.2,29.87,ENE,63,0.0,0.0,59,0.00,,,0.00,meteobridge,2013-07-25 11:11:00,
2013-07-25 04:26:00,57.9,43.2,29.87,ENE,62,0.0,0.0,58,0.00,,,0.00,meteobridge,2013-07-25 11:26:00,
2013-07-25 04:41:00,57.6,43.3,29.87,ENE,62,0.0,0.0,59,0.00,,,0.00,meteobridge,2013-07-25 11:41:00,
2013-07-25 04:56:00,56.8,42.6,29.87,ENE,62,0.0,0.0,59,0.00,,,0.00,meteobridge,2013-07-25 11:56:00,
2013-07-25 05:11:00,56.7,43.0,29.88,ENE,62,0.0,0.0,60,0.00,,,0.00,meteobridge,2013-07-25 12:11:00,
2013-07-25 05:26:00,57.0,43.3,29.88,ENE,62,0.0,0.0,60,0.00,,,0.00,meteobridge,2013-07-25 12:26:00,
2013-07-25 05:41:00,56.5,44.1,29.88,ENE,62,0.0,0.0,63,0.00,,,0.00,meteobridge,2013-07-25 12:41:00,
2013-07-25 05:56:00,56.3,45.5,29.88,ENE,62,0.0,0.0,67,0.00,,,0.00,meteobridge,2013-07-25 12:56:00,
2013-07-25 06:11:00,57.7,46.0,29.88,ENE,62,0.0,0.0,65,0.00,,,0.00,meteobridge,2013-07-25 13:11:00,
2013-07-25 06:26:00,58.3,46.2,29.88,ENE,69,0.0,0.0,64,0.00,,,0.00,meteobridge,2013-07-25 13:26:00,
2013-07-25 06:41:00,58.3,45.7,29.89,ENE,70,0.0,0.0,63,0.00,,,0.00,meteobridge,2013-07-25 13:41:00,
2013-07-25 06:57:00,58.3,46.2,29.90,East,84,0.0,0.0,64,0.00,,,0.00,meteobridge,2013-07-25 13:57:00,
2013-07-25 07:12:00,60.6,51.1,29.91,NE,54,0.9,2.9,71,0.00,,,0.00,meteobridge,2013-07-25 14:12:00,
2013-07-25 07:27:00,64.0,52.9,29.91,NE,44,0.0,2.0,67,0.00,,,0.00,meteobridge,2013-07-25 14:27:00,
2013-07-25 07:42:00,67.6,54.1,29.91,ENE,60,0.0,0.9,62,0.00,,,0.00,meteobridge,2013-07-25 14:42:00,
2013-07-25 07:57:00,69.6,53.2,29.91,NE,56,0.9,2.0,56,0.00,,,0.00,meteobridge,2013-07-25 14:57:00,
2013-07-25 08:12:00,71.6,53.6,29.91,ENE,58,0.0,0.0,53,0.00,,,0.00,meteobridge,2013-07-25 15:12:00,
2013-07-25 08:27:00,72.5,52.3,29.91,NE,34,2.0,2.9,49,0.00,,,0.00,meteobridge,2013-07-25 15:27:00,
2013-07-25 08:42:00,73.8,50.5,29.91,NE,41,0.0,2.0,44,0.00,,,0.00,meteobridge,2013-07-25 15:42:00,
2013-07-25 08:57:00,76.6,49.8,29.91,NE,55,0.9,0.9,39,0.00,,,0.00,meteobridge,2013-07-25 15:57:00,
2013-07-25 09:12:00,78.4,51.4,29.91,West,271,0.0,0.0,39,0.00,,,0.00,meteobridge,2013-07-25 16:12:00,
2013-07-25 09:27:00,81.7,51.4,29.91,SE,127,0.0,0.0,35,0.00,,,0.00,meteobridge,2013-07-25 16:27:00,
2013-07-25 09:42:00,82.9,48.4,29.91,SE,127,0.0,0.0,30,0.00,,,0.00,meteobridge,2013-07-25 16:42:00,
2013-07-25 09:57:00,84.4,50.4,29.91,West,270,0.0,0.0,31,0.00,,,0.00,meteobridge,2013-07-25 16:57:00,
2013-07-25 10:12:00,84.6,47.8,29.91,SE,125,0.0,0.9,28,0.00,,,0.00,meteobridge,2013-07-25 17:12:00,
2013-07-25 10:27:00,85.6,50.7,29.91,ESE,113,0.0,4.0,30,0.00,,,0.00,meteobridge,2013-07-25 17:27:00,
2013-07-25 10:42:00,86.5,50.5,29.90,WSW,246,2.9,2.9,29,0.00,,,0.00,meteobridge,2013-07-25 17:42:00,
2013-07-25 10:58:00,87.1,49.1,29.90,West,266,0.0,2.9,27,0.00,,,0.00,meteobridge,2013-07-25 17:58:00,
2013-07-25 11:13:00,88.3,50.2,29.90,SW,229,0.0,0.0,27,0.00,,,0.00,meteobridge,2013-07-25 18:13:00,
2013-07-25 11:28:00,88.3,46.9,29.90,ENE,69,0.0,0.9,24,0.00,,,0.00,meteobridge,2013-07-25 18:28:00,
2013-07-25 11:43:00,89.2,49.8,29.90,ESE,108,0.0,0.9,26,0.00,,,0.00,meteobridge,2013-07-25 18:43:00,
2013-07-25 11:58:00,89.6,46.9,29.89,ESE,117,0.0,2.0,23,0.00,,,0.00,meteobridge,2013-07-25 18:58:00,
2013-07-25 12:13:00,90.9,50.2,29.89,WSW,250,0.0,0.9,25,0.00,,,0.00,meteobridge,2013-07-25 19:13:00,
2013-07-25 12:28:00,91.9,47.7,29.89,SE,126,0.0,0.9,22,0.00,,,0.00,meteobridge,2013-07-25 19:28:00,
2013-07-25 12:43:00,91.9,46.4,29.89,SW,226,0.0,0.0,21,0.00,,,0.00,meteobridge,2013-07-25 19:43:00,
2013-07-25 12:58:00,93.0,47.3,29.88,East,87,0.0,0.9,21,0.00,,,0.00,meteobridge,2013-07-25 19:58:00,
2013-07-25 13:13:00,92.5,50.4,29.88,SSE,148,0.0,0.9,24,0.00,,,0.00,meteobridge,2013-07-25 20:13:00,
2013-07-25 13:28:00,93.9,48.0,29.88,West,259,0.0,0.9,21,0.00,,,0.00,meteobridge,2013-07-25 20:28:00,
2013-07-25 13:43:00,93.6,45.1,29.87,WSW,245,0.0,2.9,19,0.00,,,0.00,meteobridge,2013-07-25 20:43:00,
2013-07-25 13:58:00,93.4,46.4,29.87,NNE,33,0.0,0.9,20,0.00,,,0.00,meteobridge,2013-07-25 20:58:00,
2013-07-25 14:13:00,94.5,43.0,29.87,SSE,160,0.0,0.9,17,0.00,,,0.00,meteobridge,2013-07-25 21:13:00,
2013-07-25 14:28:00,94.3,37.8,29.86,WSW,252,0.9,0.9,14,0.00,,,0.00,meteobridge,2013-07-25 21:28:00,
2013-07-25 14:43:00,94.8,43.2,29.86,WSW,253,0.0,0.9,17,0.00,,,0.00,meteobridge,2013-07-25 21:43:00,
2013-07-25 14:59:00,95.2,40.3,29.86,East,87,0.0,0.9,15,0.00,,,0.00,meteobridge,2013-07-25 21:59:00,
2013-07-25 15:14:00,94.8,43.2,29.85,West,262,0.9,4.9,17,0.00,,,0.00,meteobridge,2013-07-25 22:14:00,
2013-07-25 15:29:00,95.0,41.7,29.85,SSE,155,0.0,0.0,16,0.00,,,0.00,meteobridge,2013-07-25 22:29:00,
2013-07-25 15:44:00,95.2,38.5,29.85,SW,236,0.0,0.9,14,0.00,,,0.00,meteobridge,2013-07-25 22:44:00,
2013-07-25 15:59:00,95.2,38.5,29.85,WSW,238,0.0,4.0,14,0.00,,,0.00,meteobridge,2013-07-25 22:59:00,
2013-07-25 16:14:00,95.7,40.6,29.85,SW,231,0.0,2.0,15,0.00,,,0.00,meteobridge,2013-07-25 23:14:00,
2013-07-25 16:29:00,97.2,38.1,29.85,ESE,115,0.0,0.0,13,0.00,,,0.00,meteobridge,2013-07-25 23:29:00,
2013-07-25 16:44:00,96.8,41.5,29.84,NE,55,0.9,0.9,15,0.00,,,0.00,meteobridge,2013-07-25 23:44:00,
2013-07-25 16:59:00,96.4,39.6,29.84,West,275,0.0,2.0,14,0.00,,,0.00,meteobridge,2013-07-25 23:59:00,
2013-07-25 17:14:00,96.4,41.2,29.84,WSW,238,0.0,4.0,15,0.00,,,0.00,meteobridge,2013-07-26 00:14:00,
2013-07-25 17:29:00,95.5,36.9,29.83,SW,232,0.0,0.9,13,0.00,,,0.00,meteobridge,2013-07-26 00:29:00,
2013-07-25 17:44:00,95.4,38.7,29.83,WSW,240,2.0,2.0,14,0.00,,,0.00,meteobridge,2013-07-26 00:44:00,
2013-07-25 17:59:00,95.2,40.3,29.83,NW,307,0.0,0.0,15,0.00,,,0.00,meteobridge,2013-07-26 00:59:00,
2013-07-25 18:14:00,97.3,38.3,29.83,WSW,243,2.0,2.9,13,0.00,,,0.00,meteobridge,2013-07-26 01:14:00,
2013-07-25 18:29:00,96.3,37.4,29.83,SW,232,0.0,2.0,13,0.00,,,0.00,meteobridge,2013-07-26 01:29:00,
2013-07-25 18:45:00,94.6,43.0,29.83,WSW,238,0.0,0.0,17,0.00,,,0.00,meteobridge,2013-07-26 01:45:00,
2013-07-25 19:00:00,92.7,38.3,29.83,SW,234,0.0,0.0,15,0.00,,,0.00,meteobridge,2013-07-26 02:00:00,
2013-07-25 19:15:00,90.9,40.1,29.83,SW,234,0.0,0.0,17,0.00,,,0.00,meteobridge,2013-07-26 02:15:00,
2013-07-25 19:30:00,89.2,40.3,29.83,SW,234,0.0,0.0,18,0.00,,,0.00,meteobridge,2013-07-26 02:30:00,
2013-07-25 19:45:00,87.6,41.5,29.83,SW,234,0.0,0.0,20,0.00,,,0.00,meteobridge,2013-07-26 02:45:00,
2013-07-25 20:00:00,85.8,43.7,29.83,SW,234,0.0,0.0,23,0.00,,,0.00,meteobridge,2013-07-26 03:00:00,
2013-07-25 20:15:00,84.0,44.4,29.83,SW,234,0.0,0.0,25,0.00,,,0.00,meteobridge,2013-07-26 03:15:00,
2013-07-25 20:30:00,81.3,45.1,29.83,SW,234,0.0,0.0,28,0.00,,,0.00,meteobridge,2013-07-26 03:30:00,
2013-07-25 20:46:00,79.5,42.6,29.83,SW,231,0.0,0.9,27,0.00,,,0.00,meteobridge,2013-07-26 03:46:00,
2013-07-25 21:01:00,77.9,41.2,29.84,ESE,110,0.0,0.9,27,0.00,,,0.00,meteobridge,2013-07-26 04:01:00,
2013-07-25 21:16:00,77.0,39.6,29.84,ESE,114,0.0,0.0,26,0.00,,,0.00,meteobridge,2013-07-26 04:16:00,
2013-07-25 21:31:00,75.6,39.2,29.84,ESE,114,0.0,0.0,27,0.00,,,0.00,meteobridge,2013-07-26 04:31:00,
2013-07-25 21:46:00,75.4,38.1,29.85,ESE,114,0.0,0.0,26,0.00,,,0.00,meteobridge,2013-07-26 04:46:00,
2013-07-25 22:02:00,74.7,37.6,29.85,ESE,114,0.0,0.0,26,0.00,,,0.00,meteobridge,2013-07-26 05:02:00,
2013-07-25 22:17:00,74.7,39.4,29.85,ESE,114,0.0,0.9,28,0.00,,,0.00,meteobridge,2013-07-26 05:17:00,
2013-07-25 22:32:00,74.1,37.0,29.85,ESE,105,0.0,0.0,26,0.00,,,0.00,meteobridge,2013-07-26 05:32:00,
2013-07-25 22:47:00,73.6,36.5,29.85,ESE,105,0.0,0.0,26,0.00,,,0.00,meteobridge,2013-07-26 05:47:00,
2013-07-25 23:02:00,72.0,37.0,29.85,ESE,106,0.0,0.0,28,0.00,,,0.00,meteobridge,2013-07-26 06:02:00,
2013-07-25 23:17:00,71.4,37.6,29.86,ESE,106,0.0,0.0,29,0.00,,,0.00,meteobridge,2013-07-26 06:17:00,
2013-07-25 23:32:00,71.2,38.3,29.86,ESE,106,0.0,0.0,30,0.00,,,0.00,meteobridge,2013-07-26 06:32:00,
2013-07-25 23:47:00,70.9,38.7,29.86,ESE,106,0.0,0.0,31,0.00,,,0.00,meteobridge,2013-07-26 06:47:00,